sensor_id;sensor_type;location;lat;lon;timestamp;P1;durP1;ratioP1;P2;durP2;ratioP2
23800;SDS011;12081;48.614;10.226;2022-07-29T00:00:03;12.33;;;8.70;;
23800;SDS011;12081;48.614;10.226;2022-07-29T00:02:49;10.83;;;9.73;;
23800;SDS011;12081;48.614;10.226;2022-07-29T00:05:33;9.40;;;8.47;;
23800;SDS011;12081;48.614;10.226;2022-07-29T00:08:17;9.60;;;8.70;;
23800;SDS011;12081;48.614;10.226;2022-07-29T00:11:01;9.63;;;8.63;;
23800;SDS011;12081;48.614;10.226;2022-07-29T00:13:45;12.40;;;8.37;;
23800;SDS011;12081;48.614;10.226;2022-07-29T00:16:29;10.97;;;8.93;;
23800;SDS011;12081;48.614;10.226;2022-07-29T00:19:13;8.80;;;7.97;;
23800;SDS011;12081;48.614;10.226;2022-07-29T00:21:57;10.13;;;9.13;;
23800;SDS011;12081;48.614;10.226;2022-07-29T00:24:41;11.40;;;9.23;;
23800;SDS011;12081;48.614;10.226;2022-07-29T00:27:25;9.30;;;7.73;;
23800;SDS011;12081;48.614;10.226;2022-07-29T00:30:09;10.40;;;8.00;;
23800;SDS011;12081;48.614;10.226;2022-07-29T00:32:53;9.73;;;8.40;;
23800;SDS011;12081;48.614;10.226;2022-07-29T00:35:37;12.13;;;8.17;;
23800;SDS011;12081;48.614;10.226;2022-07-29T00:38:27;12.07;;;7.73;;
23800;SDS011;12081;48.614;10.226;2022-07-29T00:41:12;10.00;;;7.83;;
23800;SDS011;12081;48.614;10.226;2022-07-29T00:43:56;8.67;;;7.70;;
23800;SDS011;12081;48.614;10.226;2022-07-29T00:46:41;8.50;;;7.53;;
23800;SDS011;12081;48.614;10.226;2022-07-29T00:49:25;9.10;;;6.87;;
23800;SDS011;12081;48.614;10.226;2022-07-29T01:18:34;6.70;;;5.90;;
23800;SDS011;12081;48.614;10.226;2022-07-29T01:57:50;12.67;;;11.37;;
23800;SDS011;12081;48.614;10.226;2022-07-29T05:34:09;75.03;;;25.83;;
23800;SDS011;12081;48.614;10.226;2022-07-29T05:36:53;119.57;;;27.77;;
23800;SDS011;12081;48.614;10.226;2022-07-29T05:39:37;63.23;;;29.83;;
23800;SDS011;12081;48.614;10.226;2022-07-29T05:42:21;65.10;;;27.17;;
23800;SDS011;12081;48.614;10.226;2022-07-29T05:45:05;108.13;;;26.17;;
23800;SDS011;12081;48.614;10.226;2022-07-29T05:47:49;38.73;;;26.43;;
23800;SDS011;12081;48.614;10.226;2022-07-29T05:50:33;27.87;;;24.90;;
23800;SDS011;12081;48.614;10.226;2022-07-29T05:53:17;30.10;;;25.83;;
23800;SDS011;12081;48.614;10.226;2022-07-29T05:56:05;28.53;;;25.33;;
23800;SDS011;12081;48.614;10.226;2022-07-29T05:58:49;26.70;;;24.03;;
23800;SDS011;12081;48.614;10.226;2022-07-29T06:01:34;26.73;;;23.97;;
23800;SDS011;12081;48.614;10.226;2022-07-29T06:04:22;24.20;;;21.80;;
23800;SDS011;12081;48.614;10.226;2022-07-29T06:07:06;22.53;;;20.30;;
23800;SDS011;12081;48.614;10.226;2022-07-29T06:09:50;24.50;;;22.20;;
23800;SDS011;12081;48.614;10.226;2022-07-29T06:12:35;23.17;;;20.73;;
23800;SDS011;12081;48.614;10.226;2022-07-29T06:15:19;21.77;;;19.67;;
23800;SDS011;12081;48.614;10.226;2022-07-29T06:18:03;19.87;;;17.97;;
23800;SDS011;12081;48.614;10.226;2022-07-29T06:20:47;19.37;;;17.57;;
23800;SDS011;12081;48.614;10.226;2022-07-29T06:23:31;19.53;;;17.57;;
23800;SDS011;12081;48.614;10.226;2022-07-29T06:26:15;18.00;;;16.27;;
23800;SDS011;12081;48.614;10.226;2022-07-29T06:28:59;17.37;;;15.87;;
23800;SDS011;12081;48.614;10.226;2022-07-29T06:31:43;16.10;;;14.70;;
23800;SDS011;12081;48.614;10.226;2022-07-29T06:34:27;17.77;;;15.97;;
23800;SDS011;12081;48.614;10.226;2022-07-29T06:37:11;16.67;;;15.17;;
23800;SDS011;12081;48.614;10.226;2022-07-29T06:39:55;18.10;;;16.30;;
23800;SDS011;12081;48.614;10.226;2022-07-29T06:42:59;16.63;;;15.07;;
23800;SDS011;12081;48.614;10.226;2022-07-29T06:45:44;17.70;;;15.87;;
23800;SDS011;12081;48.614;10.226;2022-07-29T06:48:28;17.13;;;15.53;;
23800;SDS011;12081;48.614;10.226;2022-07-29T06:51:13;16.23;;;14.70;;
23800;SDS011;12081;48.614;10.226;2022-07-29T06:53:57;16.43;;;14.83;;
23800;SDS011;12081;48.614;10.226;2022-07-29T06:56:42;16.00;;;14.40;;
23800;SDS011;12081;48.614;10.226;2022-07-29T06:59:26;15.83;;;14.13;;
23800;SDS011;12081;48.614;10.226;2022-07-29T07:02:10;22.47;;;13.80;;
23800;SDS011;12081;48.614;10.226;2022-07-29T07:04:54;15.17;;;13.80;;
23800;SDS011;12081;48.614;10.226;2022-07-29T07:07:38;13.97;;;12.67;;
23800;SDS011;12081;48.614;10.226;2022-07-29T07:10:22;13.63;;;12.33;;
23800;SDS011;12081;48.614;10.226;2022-07-29T07:13:07;13.50;;;12.20;;
23800;SDS011;12081;48.614;10.226;2022-07-29T07:15:51;12.57;;;11.50;;
23800;SDS011;12081;48.614;10.226;2022-07-29T07:18:35;11.90;;;10.83;;
23800;SDS011;12081;48.614;10.226;2022-07-29T07:21:19;15.67;;;11.13;;
23800;SDS011;12081;48.614;10.226;2022-07-29T07:24:03;11.77;;;10.67;;
23800;SDS011;12081;48.614;10.226;2022-07-29T07:26:48;11.60;;;10.47;;
23800;SDS011;12081;48.614;10.226;2022-07-29T07:29:32;11.00;;;10.03;;
23800;SDS011;12081;48.614;10.226;2022-07-29T07:32:16;10.90;;;9.80;;
23800;SDS011;12081;48.614;10.226;2022-07-29T07:35:01;10.00;;;9.20;;
23800;SDS011;12081;48.614;10.226;2022-07-29T07:37:46;9.85;;;8.85;;
23800;SDS011;12081;48.614;10.226;2022-07-29T07:40:31;9.65;;;8.75;;
23800;SDS011;12081;48.614;10.226;2022-07-29T07:43:16;10.27;;;8.82;;
23800;SDS011;12081;48.614;10.226;2022-07-29T07:46:00;9.98;;;9.18;;
23800;SDS011;12081;48.614;10.226;2022-07-29T07:48:45;10.85;;;8.95;;
23800;SDS011;12081;48.614;10.226;2022-07-29T07:51:29;11.68;;;9.00;;
23800;SDS011;12081;48.614;10.226;2022-07-29T07:54:14;9.60;;;8.50;;
23800;SDS011;12081;48.614;10.226;2022-07-29T07:56:58;8.93;;;8.02;;
23800;SDS011;12081;48.614;10.226;2022-07-29T07:59:44;8.13;;;7.43;;
23800;SDS011;12081;48.614;10.226;2022-07-29T08:02:29;7.75;;;6.97;;
23800;SDS011;12081;48.614;10.226;2022-07-29T08:05:13;8.23;;;7.43;;
23800;SDS011;12081;48.614;10.226;2022-07-29T08:08:00;8.98;;;7.13;;
23800;SDS011;12081;48.614;10.226;2022-07-29T08:10:44;7.00;;;6.13;;
23800;SDS011;12081;48.614;10.226;2022-07-29T08:13:39;7.10;;;5.78;;
23800;SDS011;12081;48.614;10.226;2022-07-29T08:16:24;8.13;;;5.72;;
23800;SDS011;12081;48.614;10.226;2022-07-29T08:19:08;6.93;;;5.55;;
23800;SDS011;12081;48.614;10.226;2022-07-29T08:21:53;7.20;;;5.68;;
23800;SDS011;12081;48.614;10.226;2022-07-29T08:24:37;6.05;;;5.47;;
23800;SDS011;12081;48.614;10.226;2022-07-29T08:27:29;6.45;;;5.72;;
23800;SDS011;12081;48.614;10.226;2022-07-29T08:30:15;7.97;;;5.63;;
23800;SDS011;12081;48.614;10.226;2022-07-29T08:33:00;5.55;;;5.15;;
23800;SDS011;12081;48.614;10.226;2022-07-29T08:35:44;5.63;;;5.00;;
23800;SDS011;12081;48.614;10.226;2022-07-29T08:38:29;5.28;;;4.55;;
23800;SDS011;12081;48.614;10.226;2022-07-29T08:41:14;6.72;;;4.95;;
23800;SDS011;12081;48.614;10.226;2022-07-29T08:43:58;5.25;;;4.75;;
23800;SDS011;12081;48.614;10.226;2022-07-29T08:46:43;6.03;;;4.80;;
23800;SDS011;12081;48.614;10.226;2022-07-29T08:49:28;7.53;;;5.63;;
23800;SDS011;12081;48.614;10.226;2022-07-29T08:52:12;5.32;;;4.82;;
23800;SDS011;12081;48.614;10.226;2022-07-29T08:54:58;5.50;;;5.00;;
23800;SDS011;12081;48.614;10.226;2022-07-29T08:57:43;5.55;;;5.05;;
23800;SDS011;12081;48.614;10.226;2022-07-29T09:00:29;6.25;;;5.60;;
23800;SDS011;12081;48.614;10.226;2022-07-29T09:03:14;6.03;;;5.53;;
23800;SDS011;12081;48.614;10.226;2022-07-29T09:06:02;6.10;;;5.60;;
23800;SDS011;12081;48.614;10.226;2022-07-29T09:08:47;6.13;;;5.63;;
23800;SDS011;12081;48.614;10.226;2022-07-29T09:11:32;8.00;;;6.35;;
23800;SDS011;12081;48.614;10.226;2022-07-29T09:14:16;5.45;;;5.05;;
23800;SDS011;12081;48.614;10.226;2022-07-29T09:17:01;4.93;;;4.53;;
23800;SDS011;12081;48.614;10.226;2022-07-29T09:19:46;5.95;;;5.50;;
23800;SDS011;12081;48.614;10.226;2022-07-29T09:22:30;5.75;;;5.25;;
23800;SDS011;12081;48.614;10.226;2022-07-29T09:25:36;6.15;;;5.13;;
23800;SDS011;12081;48.614;10.226;2022-07-29T09:28:22;6.10;;;5.28;;
23800;SDS011;12081;48.614;10.226;2022-07-29T09:31:07;5.68;;;5.15;;
23800;SDS011;12081;48.614;10.226;2022-07-29T09:33:52;5.95;;;5.35;;
23800;SDS011;12081;48.614;10.226;2022-07-29T09:36:45;7.50;;;5.35;;
23800;SDS011;12081;48.614;10.226;2022-07-29T09:39:32;9.35;;;5.20;;
23800;SDS011;12081;48.614;10.226;2022-07-29T09:42:29;5.75;;;5.20;;
23800;SDS011;12081;48.614;10.226;2022-07-29T09:45:32;5.20;;;4.70;;
23800;SDS011;12081;48.614;10.226;2022-07-29T09:48:18;7.60;;;5.47;;
23800;SDS011;12081;48.614;10.226;2022-07-29T09:51:19;6.20;;;4.57;;
23800;SDS011;12081;48.614;10.226;2022-07-29T09:57:08;6.03;;;5.47;;
23800;SDS011;12081;48.614;10.226;2022-07-29T10:00:06;5.20;;;4.78;;
23800;SDS011;12081;48.614;10.226;2022-07-29T10:02:53;6.68;;;5.28;;
23800;SDS011;12081;48.614;10.226;2022-07-29T10:05:45;5.25;;;4.65;;
23800;SDS011;12081;48.614;10.226;2022-07-29T10:08:30;10.13;;;5.80;;
23800;SDS011;12081;48.614;10.226;2022-07-29T10:11:16;6.70;;;4.80;;
23800;SDS011;12081;48.614;10.226;2022-07-29T10:14:01;9.40;;;5.68;;
23800;SDS011;12081;48.614;10.226;2022-07-29T10:16:47;6.00;;;5.40;;
23800;SDS011;12081;48.614;10.226;2022-07-29T10:19:32;6.45;;;5.95;;
23800;SDS011;12081;48.614;10.226;2022-07-29T10:22:18;6.13;;;5.30;;
23800;SDS011;12081;48.614;10.226;2022-07-29T10:25:03;7.40;;;4.97;;
23800;SDS011;12081;48.614;10.226;2022-07-29T10:27:48;7.38;;;5.93;;
23800;SDS011;12081;48.614;10.226;2022-07-29T10:30:37;9.30;;;5.93;;
23800;SDS011;12081;48.614;10.226;2022-07-29T10:42:25;5.07;;;4.28;;
23800;SDS011;12081;48.614;10.226;2022-07-29T10:45:13;6.85;;;5.03;;
23800;SDS011;12081;48.614;10.226;2022-07-29T10:48:04;5.13;;;4.63;;
23800;SDS011;12081;48.614;10.226;2022-07-29T10:57:27;6.85;;;5.20;;
23800;SDS011;12081;48.614;10.226;2022-07-29T11:02:58;8.02;;;4.57;;
23800;SDS011;12081;48.614;10.226;2022-07-29T11:05:56;5.57;;;5.05;;
23800;SDS011;12081;48.614;10.226;2022-07-29T11:08:41;7.50;;;5.25;;
23800;SDS011;12081;48.614;10.226;2022-07-29T11:14:10;8.07;;;6.63;;
23800;SDS011;12081;48.614;10.226;2022-07-29T11:17:04;7.43;;;6.63;;
23800;SDS011;12081;48.614;10.226;2022-07-29T11:19:50;9.43;;;8.00;;
23800;SDS011;12081;48.614;10.226;2022-07-29T11:22:35;10.35;;;8.23;;
23800;SDS011;12081;48.614;10.226;2022-07-29T11:25:20;11.00;;;9.98;;
23800;SDS011;12081;48.614;10.226;2022-07-29T11:28:08;14.65;;;11.38;;
23800;SDS011;12081;48.614;10.226;2022-07-29T11:30:57;17.90;;;9.18;;
23800;SDS011;12081;48.614;10.226;2022-07-29T11:33:43;13.77;;;5.95;;
23800;SDS011;12081;48.614;10.226;2022-07-29T11:36:28;7.70;;;4.63;;
23800;SDS011;12081;48.614;10.226;2022-07-29T11:39:25;12.50;;;4.30;;
23800;SDS011;12081;48.614;10.226;2022-07-29T11:48:00;5.23;;;2.50;;
23800;SDS011;12081;48.614;10.226;2022-07-29T11:50:45;3.47;;;1.70;;
23800;SDS011;12081;48.614;10.226;2022-07-29T11:53:30;3.20;;;1.77;;
23800;SDS011;12081;48.614;10.226;2022-07-29T11:56:14;3.10;;;2.37;;
23800;SDS011;12081;48.614;10.226;2022-07-29T11:59:05;6.70;;;3.17;;
23800;SDS011;12081;48.614;10.226;2022-07-29T12:01:56;4.27;;;2.60;;
23800;SDS011;12081;48.614;10.226;2022-07-29T12:07:37;4.77;;;2.63;;
23800;SDS011;12081;48.614;10.226;2022-07-29T12:10:23;5.27;;;3.80;;
23800;SDS011;12081;48.614;10.226;2022-07-29T12:13:15;6.33;;;3.63;;
23800;SDS011;12081;48.614;10.226;2022-07-29T12:16:01;5.50;;;3.73;;
23800;SDS011;12081;48.614;10.226;2022-07-29T12:18:58;9.50;;;3.77;;
23800;SDS011;12081;48.614;10.226;2022-07-29T12:21:47;5.33;;;3.07;;
23800;SDS011;12081;48.614;10.226;2022-07-29T12:24:43;5.13;;;3.10;;
23800;SDS011;12081;48.614;10.226;2022-07-29T12:27:28;6.07;;;3.40;;
23800;SDS011;12081;48.614;10.226;2022-07-29T12:33:54;3.50;;;3.03;;
23800;SDS011;12081;48.614;10.226;2022-07-29T12:36:38;4.17;;;2.23;;
23800;SDS011;12081;48.614;10.226;2022-07-29T12:39:24;4.67;;;2.10;;
23800;SDS011;12081;48.614;10.226;2022-07-29T12:42:12;4.33;;;2.00;;
23800;SDS011;12081;48.614;10.226;2022-07-29T12:44:57;3.90;;;2.37;;
23800;SDS011;12081;48.614;10.226;2022-07-29T12:47:51;3.60;;;2.20;;
23800;SDS011;12081;48.614;10.226;2022-07-29T12:50:37;3.57;;;2.03;;
23800;SDS011;12081;48.614;10.226;2022-07-29T12:53:36;3.43;;;2.23;;
23800;SDS011;12081;48.614;10.226;2022-07-29T12:56:21;2.47;;;1.83;;
23800;SDS011;12081;48.614;10.226;2022-07-29T13:02:01;3.80;;;2.03;;
23800;SDS011;12081;48.614;10.226;2022-07-29T13:04:54;3.80;;;2.67;;
23800;SDS011;12081;48.614;10.226;2022-07-29T13:07:43;7.53;;;2.80;;
23800;SDS011;12081;48.614;10.226;2022-07-29T13:10:27;5.93;;;3.30;;
23800;SDS011;12081;48.614;10.226;2022-07-29T13:13:13;4.03;;;2.40;;
23800;SDS011;12081;48.614;10.226;2022-07-29T13:16:06;5.20;;;3.17;;
23800;SDS011;12081;48.614;10.226;2022-07-29T13:19:08;4.73;;;3.03;;
23800;SDS011;12081;48.614;10.226;2022-07-29T13:21:54;5.67;;;2.80;;
23800;SDS011;12081;48.614;10.226;2022-07-29T13:25:12;4.90;;;2.77;;
23800;SDS011;12081;48.614;10.226;2022-07-29T13:27:52;3.20;;;2.30;;
23800;SDS011;12081;48.614;10.226;2022-07-29T13:30:39;4.10;;;2.83;;
23800;SDS011;12081;48.614;10.226;2022-07-29T13:33:24;3.17;;;2.40;;
23800;SDS011;12081;48.614;10.226;2022-07-29T13:36:09;3.93;;;2.70;;
23800;SDS011;12081;48.614;10.226;2022-07-29T13:38:53;5.50;;;3.77;;
23800;SDS011;12081;48.614;10.226;2022-07-29T13:41:38;5.03;;;3.00;;
23800;SDS011;12081;48.614;10.226;2022-07-29T13:44:22;4.50;;;3.33;;
23800;SDS011;12081;48.614;10.226;2022-07-29T13:47:07;4.27;;;3.37;;
23800;SDS011;12081;48.614;10.226;2022-07-29T13:49:52;4.33;;;3.83;;
23800;SDS011;12081;48.614;10.226;2022-07-29T13:52:36;4.47;;;3.70;;
23800;SDS011;12081;48.614;10.226;2022-07-29T13:55:22;4.30;;;3.90;;
23800;SDS011;12081;48.614;10.226;2022-07-29T13:58:06;4.60;;;4.20;;
23800;SDS011;12081;48.614;10.226;2022-07-29T14:00:51;6.07;;;4.10;;
23800;SDS011;12081;48.614;10.226;2022-07-29T14:03:35;6.37;;;3.97;;
23800;SDS011;12081;48.614;10.226;2022-07-29T14:06:24;5.70;;;4.37;;
23800;SDS011;12081;48.614;10.226;2022-07-29T14:09:08;4.43;;;3.90;;
23800;SDS011;12081;48.614;10.226;2022-07-29T14:11:53;5.27;;;4.17;;
23800;SDS011;12081;48.614;10.226;2022-07-29T14:14:37;4.83;;;3.30;;
23800;SDS011;12081;48.614;10.226;2022-07-29T14:17:22;5.53;;;3.73;;
23800;SDS011;12081;48.614;10.226;2022-07-29T14:20:07;5.70;;;4.73;;
23800;SDS011;12081;48.614;10.226;2022-07-29T14:22:52;5.80;;;4.60;;
23800;SDS011;12081;48.614;10.226;2022-07-29T14:25:36;4.23;;;3.83;;
23800;SDS011;12081;48.614;10.226;2022-07-29T14:28:21;4.60;;;4.20;;
23800;SDS011;12081;48.614;10.226;2022-07-29T14:31:05;7.33;;;5.00;;
23800;SDS011;12081;48.614;10.226;2022-07-29T14:33:50;5.97;;;5.00;;
23800;SDS011;12081;48.614;10.226;2022-07-29T14:36:34;7.27;;;5.70;;
23800;SDS011;12081;48.614;10.226;2022-07-29T14:39:19;7.50;;;6.30;;
23800;SDS011;12081;48.614;10.226;2022-07-29T14:42:03;9.33;;;6.03;;
23800;SDS011;12081;48.614;10.226;2022-07-29T14:44:48;7.07;;;5.50;;
23800;SDS011;12081;48.614;10.226;2022-07-29T14:47:32;6.27;;;5.50;;
23800;SDS011;12081;48.614;10.226;2022-07-29T14:50:17;5.63;;;5.13;;
23800;SDS011;12081;48.614;10.226;2022-07-29T14:53:02;5.30;;;4.83;;
23800;SDS011;12081;48.614;10.226;2022-07-29T14:55:47;4.30;;;3.87;;
23800;SDS011;12081;48.614;10.226;2022-07-29T14:58:32;4.33;;;3.90;;
23800;SDS011;12081;48.614;10.226;2022-07-29T15:01:17;4.57;;;3.70;;
23800;SDS011;12081;48.614;10.226;2022-07-29T15:04:02;5.60;;;3.77;;
23800;SDS011;12081;48.614;10.226;2022-07-29T15:06:46;4.23;;;3.83;;
23800;SDS011;12081;48.614;10.226;2022-07-29T15:09:31;4.40;;;3.67;;
23800;SDS011;12081;48.614;10.226;2022-07-29T15:12:16;8.30;;;3.63;;
23800;SDS011;12081;48.614;10.226;2022-07-29T15:15:00;3.60;;;3.30;;
23800;SDS011;12081;48.614;10.226;2022-07-29T15:17:45;3.60;;;3.30;;
23800;SDS011;12081;48.614;10.226;2022-07-29T15:20:29;4.33;;;3.20;;
23800;SDS011;12081;48.614;10.226;2022-07-29T15:23:14;4.53;;;3.20;;
23800;SDS011;12081;48.614;10.226;2022-07-29T15:25:58;4.40;;;3.30;;
23800;SDS011;12081;48.614;10.226;2022-07-29T15:28:43;4.40;;;3.60;;
23800;SDS011;12081;48.614;10.226;2022-07-29T15:35:08;3.30;;;2.97;;
23800;SDS011;12081;48.614;10.226;2022-07-29T15:37:54;4.47;;;2.90;;
23800;SDS011;12081;48.614;10.226;2022-07-29T15:40:38;2.60;;;2.40;;
23800;SDS011;12081;48.614;10.226;2022-07-29T15:43:27;2.70;;;2.50;;
23800;SDS011;12081;48.614;10.226;2022-07-29T15:46:15;4.10;;;2.63;;
23800;SDS011;12081;48.614;10.226;2022-07-29T15:49:20;2.93;;;2.40;;
23800;SDS011;12081;48.614;10.226;2022-07-29T15:52:05;2.47;;;2.20;;
23800;SDS011;12081;48.614;10.226;2022-07-29T15:54:51;3.50;;;2.50;;
23800;SDS011;12081;48.614;10.226;2022-07-29T15:57:37;5.10;;;2.60;;
23800;SDS011;12081;48.614;10.226;2022-07-29T16:00:23;3.63;;;2.50;;
23800;SDS011;12081;48.614;10.226;2022-07-29T16:03:07;2.90;;;2.60;;
23800;SDS011;12081;48.614;10.226;2022-07-29T16:05:52;3.00;;;2.50;;
23800;SDS011;12081;48.614;10.226;2022-07-29T16:08:37;3.03;;;2.70;;
23800;SDS011;12081;48.614;10.226;2022-07-29T16:11:21;5.63;;;3.00;;
23800;SDS011;12081;48.614;10.226;2022-07-29T16:14:06;2.97;;;2.73;;
23800;SDS011;12081;48.614;10.226;2022-07-29T16:16:50;3.40;;;3.10;;
23800;SDS011;12081;48.614;10.226;2022-07-29T16:19:35;3.13;;;2.73;;
23800;SDS011;12081;48.614;10.226;2022-07-29T16:22:19;3.63;;;2.83;;
23800;SDS011;12081;48.614;10.226;2022-07-29T16:25:04;3.53;;;2.63;;
23800;SDS011;12081;48.614;10.226;2022-07-29T16:27:49;4.33;;;3.03;;
23800;SDS011;12081;48.614;10.226;2022-07-29T16:30:34;6.13;;;3.03;;
23800;SDS011;12081;48.614;10.226;2022-07-29T16:33:19;5.67;;;3.07;;
23800;SDS011;12081;48.614;10.226;2022-07-29T16:36:03;6.13;;;3.80;;
23800;SDS011;12081;48.614;10.226;2022-07-29T16:38:49;3.90;;;3.50;;
23800;SDS011;12081;48.614;10.226;2022-07-29T16:41:34;8.93;;;3.93;;
23800;SDS011;12081;48.614;10.226;2022-07-29T16:44:19;4.23;;;3.53;;
23800;SDS011;12081;48.614;10.226;2022-07-29T16:47:03;5.93;;;4.60;;
23800;SDS011;12081;48.614;10.226;2022-07-29T16:49:48;4.40;;;3.77;;
23800;SDS011;12081;48.614;10.226;2022-07-29T16:52:33;3.93;;;3.63;;
23800;SDS011;12081;48.614;10.226;2022-07-29T16:55:18;3.60;;;3.30;;
23800;SDS011;12081;48.614;10.226;2022-07-29T16:58:03;4.73;;;4.00;;
23800;SDS011;12081;48.614;10.226;2022-07-29T17:00:47;5.07;;;4.00;;
23800;SDS011;12081;48.614;10.226;2022-07-29T17:03:32;4.83;;;3.90;;
23800;SDS011;12081;48.614;10.226;2022-07-29T17:06:16;7.07;;;4.37;;
23800;SDS011;12081;48.614;10.226;2022-07-29T17:09:02;5.20;;;4.10;;
23800;SDS011;12081;48.614;10.226;2022-07-29T17:11:47;7.90;;;4.70;;
23800;SDS011;12081;48.614;10.226;2022-07-29T17:14:41;4.53;;;4.10;;
23800;SDS011;12081;48.614;10.226;2022-07-29T17:17:26;5.30;;;4.17;;
23800;SDS011;12081;48.614;10.226;2022-07-29T17:20:10;4.43;;;4.07;;
23800;SDS011;12081;48.614;10.226;2022-07-29T17:22:55;8.17;;;4.67;;
23800;SDS011;12081;48.614;10.226;2022-07-29T17:25:40;7.87;;;4.80;;
23800;SDS011;12081;48.614;10.226;2022-07-29T17:28:24;7.10;;;4.97;;
23800;SDS011;12081;48.614;10.226;2022-07-29T17:31:09;4.97;;;4.47;;
23800;SDS011;12081;48.614;10.226;2022-07-29T17:33:53;7.57;;;5.30;;
23800;SDS011;12081;48.614;10.226;2022-07-29T17:36:38;5.43;;;4.93;;
23800;SDS011;12081;48.614;10.226;2022-07-29T17:39:22;6.03;;;5.43;;
23800;SDS011;12081;48.614;10.226;2022-07-29T17:42:07;8.73;;;5.53;;
23800;SDS011;12081;48.614;10.226;2022-07-29T17:44:53;6.70;;;5.60;;
23800;SDS011;12081;48.614;10.226;2022-07-29T17:47:38;7.83;;;6.00;;
23800;SDS011;12081;48.614;10.226;2022-07-29T17:50:24;6.60;;;6.10;;
23800;SDS011;12081;48.614;10.226;2022-07-29T17:53:09;7.30;;;6.27;;
23800;SDS011;12081;48.614;10.226;2022-07-29T17:55:53;7.57;;;6.60;;
23800;SDS011;12081;48.614;10.226;2022-07-29T17:58:38;11.07;;;6.53;;
23800;SDS011;12081;48.614;10.226;2022-07-29T18:05:04;9.40;;;8.30;;
23800;SDS011;12081;48.614;10.226;2022-07-29T18:07:48;10.20;;;8.87;;
23800;SDS011;12081;48.614;10.226;2022-07-29T18:10:33;9.20;;;8.30;;
23800;SDS011;12081;48.614;10.226;2022-07-29T18:13:18;12.43;;;10.27;;
23800;SDS011;12081;48.614;10.226;2022-07-29T18:16:03;11.80;;;9.93;;
23800;SDS011;12081;48.614;10.226;2022-07-29T18:18:47;12.03;;;10.63;;
23800;SDS011;12081;48.614;10.226;2022-07-29T18:21:32;13.33;;;11.93;;
23800;SDS011;12081;48.614;10.226;2022-07-29T18:24:18;13.77;;;12.47;;
23800;SDS011;12081;48.614;10.226;2022-07-29T18:27:02;18.73;;;14.97;;
23800;SDS011;12081;48.614;10.226;2022-07-29T18:29:47;14.47;;;12.93;;
23800;SDS011;12081;48.614;10.226;2022-07-29T18:32:31;18.73;;;13.20;;
23800;SDS011;12081;48.614;10.226;2022-07-29T18:35:16;17.33;;;15.40;;
23800;SDS011;12081;48.614;10.226;2022-07-29T18:38:01;28.87;;;23.90;;
23800;SDS011;12081;48.614;10.226;2022-07-29T18:40:45;19.30;;;14.17;;
23800;SDS011;12081;48.614;10.226;2022-07-29T18:43:31;25.23;;;21.67;;
23800;SDS011;12081;48.614;10.226;2022-07-29T18:46:15;18.17;;;16.30;;
23800;SDS011;12081;48.614;10.226;2022-07-29T18:49:00;17.40;;;15.50;;
23800;SDS011;12081;48.614;10.226;2022-07-29T18:51:46;16.40;;;13.67;;
23800;SDS011;12081;48.614;10.226;2022-07-29T18:54:31;13.83;;;12.43;;
23800;SDS011;12081;48.614;10.226;2022-07-29T18:57:16;14.50;;;13.00;;
23800;SDS011;12081;48.614;10.226;2022-07-29T19:00:00;18.87;;;14.67;;
23800;SDS011;12081;48.614;10.226;2022-07-29T19:02:45;14.13;;;11.77;;
23800;SDS011;12081;48.614;10.226;2022-07-29T19:05:29;16.73;;;12.77;;
23800;SDS011;12081;48.614;10.226;2022-07-29T19:08:14;14.13;;;12.67;;
23800;SDS011;12081;48.614;10.226;2022-07-29T19:10:58;15.70;;;12.13;;
23800;SDS011;12081;48.614;10.226;2022-07-29T19:13:43;12.90;;;11.57;;
23800;SDS011;12081;48.614;10.226;2022-07-29T19:16:27;12.20;;;10.87;;
23800;SDS011;12081;48.614;10.226;2022-07-29T19:19:12;12.67;;;10.43;;
23800;SDS011;12081;48.614;10.226;2022-07-29T19:21:56;10.40;;;9.30;;
23800;SDS011;12081;48.614;10.226;2022-07-29T19:24:41;10.87;;;9.77;;
23800;SDS011;12081;48.614;10.226;2022-07-29T19:27:26;11.07;;;9.97;;
23800;SDS011;12081;48.614;10.226;2022-07-29T19:30:10;13.83;;;9.30;;
23800;SDS011;12081;48.614;10.226;2022-07-29T19:32:55;10.20;;;9.03;;
23800;SDS011;12081;48.614;10.226;2022-07-29T19:35:40;9.63;;;8.73;;
23800;SDS011;12081;48.614;10.226;2022-07-29T19:38:24;10.13;;;9.03;;
23800;SDS011;12081;48.614;10.226;2022-07-29T19:41:09;9.37;;;8.27;;
23800;SDS011;12081;48.614;10.226;2022-07-29T19:43:55;8.53;;;7.70;;
23800;SDS011;12081;48.614;10.226;2022-07-29T19:46:40;9.27;;;8.17;;
23800;SDS011;12081;48.614;10.226;2022-07-29T19:49:24;9.17;;;8.27;;
23800;SDS011;12081;48.614;10.226;2022-07-29T19:52:09;11.40;;;8.30;;
23800;SDS011;12081;48.614;10.226;2022-07-29T19:54:54;10.33;;;7.97;;
23800;SDS011;12081;48.614;10.226;2022-07-29T19:57:38;9.10;;;8.20;;
23800;SDS011;12081;48.614;10.226;2022-07-29T20:00:23;10.70;;;9.60;;
23800;SDS011;12081;48.614;10.226;2022-07-29T20:03:08;12.67;;;11.20;;
23800;SDS011;12081;48.614;10.226;2022-07-29T20:05:53;12.00;;;10.60;;
23800;SDS011;12081;48.614;10.226;2022-07-29T20:08:38;10.87;;;9.80;;
23800;SDS011;12081;48.614;10.226;2022-07-29T20:11:22;9.33;;;6.80;;
23800;SDS011;12081;48.614;10.226;2022-07-29T20:14:07;6.10;;;3.33;;
23800;SDS011;12081;48.614;10.226;2022-07-29T20:16:51;7.20;;;4.87;;
23800;SDS011;12081;48.614;10.226;2022-07-29T20:19:39;6.07;;;4.47;;
23800;SDS011;12081;48.614;10.226;2022-07-29T20:22:25;7.77;;;4.60;;
23800;SDS011;12081;48.614;10.226;2022-07-29T20:25:09;5.77;;;4.80;;
23800;SDS011;12081;48.614;10.226;2022-07-29T20:27:56;5.93;;;4.60;;
23800;SDS011;12081;48.614;10.226;2022-07-29T20:34:22;6.43;;;5.33;;
23800;SDS011;12081;48.614;10.226;2022-07-29T20:37:07;7.20;;;5.47;;
23800;SDS011;12081;48.614;10.226;2022-07-29T20:39:57;6.50;;;5.40;;
23800;SDS011;12081;48.614;10.226;2022-07-29T20:42:41;6.80;;;6.20;;
23800;SDS011;12081;48.614;10.226;2022-07-29T20:45:26;7.83;;;7.13;;
23800;SDS011;12081;48.614;10.226;2022-07-29T20:48:10;9.73;;;8.83;;
23800;SDS011;12081;48.614;10.226;2022-07-29T20:50:56;11.30;;;10.30;;
23800;SDS011;12081;48.614;10.226;2022-07-29T20:53:40;11.83;;;10.53;;
23800;SDS011;12081;48.614;10.226;2022-07-29T20:56:25;13.17;;;11.67;;
23800;SDS011;12081;48.614;10.226;2022-07-29T20:59:10;13.23;;;11.93;;
23800;SDS011;12081;48.614;10.226;2022-07-29T21:01:54;12.73;;;11.43;;
23800;SDS011;12081;48.614;10.226;2022-07-29T21:04:39;13.63;;;12.43;;
23800;SDS011;12081;48.614;10.226;2022-07-29T21:07:25;14.30;;;11.80;;
23800;SDS011;12081;48.614;10.226;2022-07-29T21:10:09;13.17;;;11.77;;
23800;SDS011;12081;48.614;10.226;2022-07-29T21:12:54;13.83;;;12.53;;
23800;SDS011;12081;48.614;10.226;2022-07-29T21:15:39;17.67;;;12.90;;
23800;SDS011;12081;48.614;10.226;2022-07-29T21:18:27;13.23;;;11.83;;
23800;SDS011;12081;48.614;10.226;2022-07-29T21:21:15;13.67;;;11.73;;
23800;SDS011;12081;48.614;10.226;2022-07-29T21:24:00;14.60;;;12.37;;
23800;SDS011;12081;48.614;10.226;2022-07-29T21:26:46;12.60;;;11.47;;
23800;SDS011;12081;48.614;10.226;2022-07-29T21:29:30;13.40;;;11.67;;
23800;SDS011;12081;48.614;10.226;2022-07-29T21:32:15;16.43;;;13.13;;
23800;SDS011;12081;48.614;10.226;2022-07-29T21:35:00;14.43;;;12.80;;
23800;SDS011;12081;48.614;10.226;2022-07-29T21:37:44;15.10;;;13.70;;
23800;SDS011;12081;48.614;10.226;2022-07-29T21:40:29;17.40;;;14.13;;